Time;durP1;ratioP1;P1;durP2;ratioP2;P2;SDS_P1;SDS_P2;PMS_P1;PMS_P2;Temp;Humidity;BMP_temperature;BMP_pressure;BME280_temperature;BME280_humidity;BME280_pressure;Samples;Min_cycle;Max_cycle;Signal;HPM_P1;HPM_P2
2022/02/22 06:10:14;;;;;;;6.35;5.85;;;;;;;;;;6242585;23;20607;-74
2022/02/22 06:12:41;;;;;;;8.18;7.43;;;;;;;;;;6241483;23;20146;-74
2022/02/22 06:15:07;;;;;;;4.82;4.53;;;;;;;;;;6215838;23;20423;-74
2022/02/22 06:17:42;;;;;;;7.53;6.93;;;;;;;;;;6242815;23;20380;-74
2022/02/22 06:20:08;;;;;;;4.65;4.28;;;;;;;;;;6215871;23;20087;-73
2022/02/22 06:22:35;;;;;;;7.00;6.50;;;;;;;;;;6241968;23;20008;-73
2022/02/22 06:25:02;;;;;;;4.25;3.92;;;;;;;;;;6215155;23;20214;-73
2022/02/22 06:27:28;;;;;;;4.78;4.47;;;;;;;;;;6215201;23;20019;-73
2022/02/22 06:29:54;;;;;;;4.65;4.25;;;;;;;;;;6241859;23;20012;-73
2022/02/22 06:32:21;;;;;;;4.95;4.55;;;;;;;;;;6241498;23;20028;-72
2022/02/22 06:34:47;;;;;;;4.05;3.83;;;;;;;;;;6190030;23;20012;-73
2022/02/22 06:37:13;;;;;;;4.35;4.03;;;;;;;;;;6214915;23;20066;-74
2022/02/22 06:39:39;;;;;;;3.22;3.03;;;;;;;;;;6241915;23;20008;-74
2022/02/22 06:42:04;;;;;;;4.82;4.45;;;;;;;;;;6241998;23;20023;-74
2022/02/22 06:44:30;;;;;;;4.55;4.25;;;;;;;;;;6241561;23;20004;-73
2022/02/22 06:46:57;;;;;;;5.03;4.63;;;;;;;;;;6241643;23;20384;-74
2022/02/22 06:49:22;;;;;;;3.75;3.42;;;;;;;;;;6231640;23;20008;-75
2022/02/22 06:51:50;;;;;;;3.45;3.15;;;;;;;;;;6235985;23;20075;-78
2022/02/22 06:54:17;;;;;;;4.47;3.83;;;;;;;;;;6213648;23;20012;-75
2022/02/22 06:56:42;;;;;;;3.92;3.63;;;;;;;;;;6237651;23;20012;-74
2022/02/22 06:59:08;;;;;;;6.07;5.47;;;;;;;;;;6237853;23;20471;-74
2022/02/22 07:01:34;;;;;;;7.25;5.68;;;;;;;;;;6241307;22;20512;-75
2022/02/22 07:04:00;;;;;;;10.43;8.07;;;;;;;;;;6241054;23;20012;-74
2022/02/22 07:06:26;;;;;;;11.38;8.15;;;;;;;;;;6240298;23;20019;-74
2022/02/22 07:08:52;;;;;;;8.30;4.93;;;;;;;;;;6239497;23;20024;-72
2022/02/22 07:11:18;;;;;;;4.85;4.43;;;;;;;;;;6240275;23;20024;-73
2022/02/22 07:13:44;;;;;;;5.88;5.10;;;;;;;;;;6239268;23;20016;-71
2022/02/22 07:16:13;;;;;;;9.10;6.00;;;;;;;;;;6239463;23;20019;-72
2022/02/22 07:18:38;;;;;;;8.55;5.78;;;;;;;;;;6241475;23;20012;-72
2022/02/22 07:21:04;;;;;;;4.80;4.25;;;;;;;;;;6241463;23;20014;-72
2022/02/22 07:23:30;;;;;;;10.52;5.55;;;;;;;;;;6241506;23;20432;-72
2022/02/22 07:25:56;;;;;;;8.70;5.10;;;;;;;;;;6238699;23;20004;-72
2022/02/22 07:28:22;;;;;;;11.73;8.18;;;;;;;;;;6244426;22;20482;-73
2022/02/22 07:30:47;;;;;;;4.15;3.03;;;;;;;;;;6271743;22;20015;-72
2022/02/22 07:33:14;;;;;;;8.63;6.18;;;;;;;;;;6271815;22;20083;-71
2022/02/22 07:35:39;;;;;;;7.18;5.40;;;;;;;;;;6245271;22;20007;-71
2022/02/22 07:38:05;;;;;;;13.38;7.20;;;;;;;;;;6244604;22;20068;-71
2022/02/22 07:40:32;;;;;;;7.53;5.35;;;;;;;;;;6245110;22;20106;-73
2022/02/22 07:42:58;;;;;;;5.75;4.18;;;;;;;;;;6271365;22;20015;-73
2022/02/22 07:45:24;;;;;;;5.47;4.53;;;;;;;;;;6245375;22;20012;-74
2022/02/22 07:47:50;;;;;;;8.00;3.85;;;;;;;;;;6245777;22;20022;-73
2022/02/22 07:50:17;;;;;;;5.65;4.60;;;;;;;;;;6245103;22;20008;-73
2022/02/22 07:52:43;;;;;;;5.28;3.85;;;;;;;;;;6241462;22;20023;-73
2022/02/22 07:55:10;;;;;;;6.72;4.93;;;;;;;;;;6240695;22;20020;-71
2022/02/22 07:57:37;;;;;;;8.45;4.70;;;;;;;;;;6192513;22;20015;-73
2022/02/22 08:00:05;;;;;;;5.03;3.92;;;;;;;;;;6271937;22;20014;-73
2022/02/22 08:02:30;;;;;;;5.22;4.72;;;;;;;;;;6244601;22;20453;-74
2022/02/22 08:04:56;;;;;;;13.35;7.72;;;;;;;;;;6244131;22;20042;-75
2022/02/22 08:07:22;;;;;;;13.73;10.15;;;;;;;;;;6272292;22;20094;-74
2022/02/22 08:09:49;;;;;;;9.27;7.95;;;;;;;;;;6270358;22;20027;-74
2022/02/22 08:12:15;;;;;;;6.97;6.30;;;;;;;;;;6244263;22;20023;-74
2022/02/22 08:14:41;;;;;;;9.07;7.40;;;;;;;;;;6271538;22;20034;-73
2022/02/22 08:17:07;;;;;;;8.50;6.63;;;;;;;;;;6244490;22;20039;-74
2022/02/22 08:19:33;;;;;;;8.07;5.88;;;;;;;;;;6244450;22;20023;-73
2022/02/22 08:21:59;;;;;;;4.53;4.18;;;;;;;;;;6218293;22;20015;-71
2022/02/22 08:24:27;;;;;;;5.70;5.20;;;;;;;;;;6219555;22;20008;-74
2022/02/22 08:27:05;;;;;;;4.78;4.32;;;;;;;;;;6242943;22;20144;-73
2022/02/22 08:29:31;;;;;;;5.68;3.88;;;;;;;;;;6271493;22;20011;-73
2022/02/22 08:31:57;;;;;;;5.20;4.50;;;;;;;;;;6270835;22;20024;-74
2022/02/22 08:34:23;;;;;;;3.97;3.35;;;;;;;;;;6270476;22;20042;-75
2022/02/22 08:36:50;;;;;;;4.20;3.90;;;;;;;;;;6271255;22;20669;-74
2022/02/22 08:39:15;;;;;;;5.15;3.15;;;;;;;;;;6244397;22;20007;-72
2022/02/22 08:41:42;;;;;;;5.75;5.00;;;;;;;;;;6243931;22;20015;-73
2022/02/22 08:44:13;;;;;;;3.15;2.95;;;;;;;;;;6220655;22;20034;-71
2022/02/22 08:46:39;;;;;;;6.20;3.85;;;;;;;;;;6270240;22;20016;-73
2022/02/22 08:49:05;;;;;;;5.03;3.42;;;;;;;;;;6270685;22;20008;-73
2022/02/22 08:51:31;;;;;;;3.10;2.90;;;;;;;;;;6269207;22;20101;-72
2022/02/22 08:53:57;;;;;;;2.38;2.28;;;;;;;;;;6271079;22;20015;-73
2022/02/22 08:56:23;;;;;;;3.25;2.97;;;;;;;;;;6272302;22;20015;-72
2022/02/22 08:58:49;;;;;;;1.98;1.83;;;;;;;;;;6195095;22;20003;-73
2022/02/22 09:01:17;;;;;;;1.70;1.60;;;;;;;;;;6246664;22;20027;-73
2022/02/22 09:03:54;;;;;;;3.50;2.05;;;;;;;;;;6247542;22;20015;-70
2022/02/22 09:06:20;;;;;;;2.70;2.50;;;;;;;;;;6272089;22;20011;-72
2022/02/22 09:08:46;;;;;;;3.92;2.47;;;;;;;;;;6271365;22;20023;-72
2022/02/22 09:11:13;;;;;;;2.92;2.72;;;;;;;;;;6218875;22;20046;-71
2022/02/22 09:13:38;;;;;;;2.63;2.42;;;;;;;;;;6242493;22;20016;-71
2022/02/22 09:16:05;;;;;;;2.60;2.40;;;;;;;;;;6243597;22;20524;-70
2022/02/22 09:18:31;;;;;;;2.75;2.50;;;;;;;;;;6270643;22;20015;-70
2022/02/22 09:20:57;;;;;;;2.80;2.38;;;;;;;;;;6270527;22;20010;-71
2022/02/22 09:23:23;;;;;;;2.65;2.45;;;;;;;;;;6269664;22;20011;-69
2022/02/22 09:25:49;;;;;;;1.90;1.80;;;;;;;;;;6242477;22;20012;-72
2022/02/22 09:28:14;;;;;;;2.28;1.95;;;;;;;;;;6270388;22;20012;-72
2022/02/22 09:30:44;;;;;;;2.05;1.95;;;;;;;;;;6244600;22;20019;-70
2022/02/22 09:33:10;;;;;;;2.80;2.03;;;;;;;;;;6218599;22;20019;-72
2022/02/22 09:36:08;;;;;;;2.60;2.40;;;;;;;;;;6270661;22;20011;-72
2022/02/22 09:39:16;;;;;;;3.28;2.40;;;;;;;;;;6211051;22;20020;-71
2022/02/22 09:41:43;;;;;;;5.72;2.25;;;;;;;;;;6269899;22;20034;-71
2022/02/22 09:44:09;;;;;;;2.97;2.55;;;;;;;;;;6270002;22;20405;-71
2022/02/22 09:46:37;;;;;;;2.47;2.35;;;;;;;;;;6269817;22;20014;-71
2022/02/22 09:49:03;;;;;;;1.98;1.88;;;;;;;;;;6269518;22;20356;-70
2022/02/22 09:51:29;;;;;;;2.20;2.10;;;;;;;;;;6270706;22;20022;-72
2022/02/22 09:53:55;;;;;;;3.15;2.95;;;;;;;;;;6217731;22;20039;-72
2022/02/22 09:56:25;;;;;;;2.03;1.92;;;;;;;;;;6243731;22;20011;-72
2022/02/22 09:58:50;;;;;;;5.40;2.30;;;;;;;;;;6243789;22;20034;-72
2022/02/22 10:01:16;;;;;;;2.53;2.42;;;;;;;;;;6242748;22;20459;-70
2022/02/22 10:03:42;;;;;;;2.50;2.30;;;;;;;;;;6243421;22;20018;-71
2022/02/22 10:06:09;;;;;;;2.40;2.30;;;;;;;;;;6269994;22;20016;-72
2022/02/22 10:08:37;;;;;;;2.65;2.25;;;;;;;;;;6243100;22;20019;-71
2022/02/22 10:11:03;;;;;;;2.78;1.88;;;;;;;;;;6270520;22;20012;-71
2022/02/22 10:13:30;;;;;;;2.35;2.20;;;;;;;;;;6192006;22;20019;-71
2022/02/22 10:15:58;;;;;;;2.13;2.03;;;;;;;;;;6270103;22;20091;-70
2022/02/22 10:18:25;;;;;;;2.33;2.10;;;;;;;;;;6243522;22;20072;-71
2022/02/22 10:20:51;;;;;;;2.30;2.10;;;;;;;;;;6242934;22;20440;-71
2022/02/22 10:23:27;;;;;;;2.45;2.25;;;;;;;;;;6218091;22;20016;-74
2022/02/22 10:25:59;;;;;;;2.00;1.85;;;;;;;;;;6269066;22;20050;-72
2022/02/22 10:28:25;;;;;;;3.75;2.28;;;;;;;;;;6268513;22;20444;-73
2022/02/22 10:30:53;;;;;;;2.40;2.20;;;;;;;;;;6217466;22;20023;-72
2022/02/22 10:33:26;;;;;;;2.78;2.30;;;;;;;;;;6243033;22;20110;-71
2022/02/22 10:35:58;;;;;;;2.67;2.47;;;;;;;;;;6268207;22;20105;-72
2022/02/22 10:38:26;;;;;;;2.25;2.05;;;;;;;;;;6216397;22;20012;-71
2022/02/22 10:41:01;;;;;;;2.05;1.85;;;;;;;;;;6217638;22;20475;-71
2022/02/22 10:43:31;;;;;;;1.90;1.80;;;;;;;;;;6243460;22;20421;-72
2022/02/22 10:45:59;;;;;;;5.07;1.60;;;;;;;;;;6269545;22;20043;-71
2022/02/22 10:48:30;;;;;;;2.05;1.70;;;;;;;;;;6269753;22;20034;-72
2022/02/22 10:50:56;;;;;;;2.13;1.92;;;;;;;;;;6268608;22;20100;-73
2022/02/22 10:53:27;;;;;;;2.67;2.47;;;;;;;;;;6233404;22;20043;-71
2022/02/22 10:55:53;;;;;;;2.40;2.20;;;;;;;;;;6269557;22;20125;-73
2022/02/22 10:58:19;;;;;;;3.05;2.15;;;;;;;;;;6242470;22;20424;-71
2022/02/22 11:00:44;;;;;;;2.63;2.40;;;;;;;;;;6270015;22;20074;-72
2022/02/22 11:03:11;;;;;;;2.75;2.60;;;;;;;;;;6269429;22;20012;-71
2022/02/22 11:05:36;;;;;;;2.78;2.58;;;;;;;;;;6242520;22;20057;-71
2022/02/22 11:08:03;;;;;;;3.20;2.90;;;;;;;;;;6268443;22;20509;-73
2022/02/22 11:10:29;;;;;;;2.97;2.33;;;;;;;;;;6269616;22;20014;-72
2022/02/22 11:12:59;;;;;;;2.42;2.22;;;;;;;;;;6266867;22;20023;-71
2022/02/22 11:15:35;;;;;;;3.13;2.85;;;;;;;;;;6269247;22;20012;-71
2022/02/22 11:18:22;;;;;;;2.60;2.40;;;;;;;;;;6243464;22;20019;-70
2022/02/22 11:20:48;;;;;;;2.10;2.00;;;;;;;;;;6243784;22;20474;-71
2022/02/22 11:23:22;;;;;;;2.30;2.10;;;;;;;;;;6271033;22;20012;-71
2022/02/22 11:25:51;;;;;;;2.25;2.05;;;;;;;;;;6243894;22;20020;-71
2022/02/22 11:28:17;;;;;;;2.40;2.20;;;;;;;;;;6270679;22;20015;-70
2022/02/22 11:30:43;;;;;;;1.90;1.80;;;;;;;;;;6270347;22;20015;-71
2022/02/22 11:33:15;;;;;;;2.00;1.90;;;;;;;;;;6242436;22;20023;-71
2022/02/22 11:35:47;;;;;;;2.55;2.33;;;;;;;;;;6269615;22;20016;-71
2022/02/22 11:38:13;;;;;;;2.40;2.30;;;;;;;;;;6268840;22;20643;-71
2022/02/22 11:40:39;;;;;;;2.53;2.33;;;;;;;;;;6269544;22;20504;-72
2022/02/22 11:43:06;;;;;;;2.40;2.30;;;;;;;;;;6268987;22;20012;-71
2022/02/22 11:45:32;;;;;;;2.60;2.40;;;;;;;;;;6269264;22;20016;-71
2022/02/22 11:48:28;;;;;;;2.58;2.38;;;;;;;;;;6217588;22;20022;-72
2022/02/22 11:50:57;;;;;;;2.40;2.20;;;;;;;;;;6239100;22;20038;-71
2022/02/22 11:53:23;;;;;;;2.55;2.42;;;;;;;;;;6271329;22;20153;-71
2022/02/22 11:55:50;;;;;;;2.80;2.50;;;;;;;;;;6270790;22;20015;-71
2022/02/22 11:58:20;;;;;;;2.42;2.20;;;;;;;;;;6244029;22;20096;-71
2022/02/22 12:00:47;;;;;;;2.47;2.37;;;;;;;;;;6219856;22;20034;-71
2022/02/22 12:03:14;;;;;;;2.45;2.30;;;;;;;;;;6243277;22;20515;-70
2022/02/22 12:05:41;;;;;;;2.67;2.47;;;;;;;;;;6243933;22;20058;-69
2022/02/22 12:08:08;;;;;;;2.05;1.95;;;;;;;;;;6243658;22;20486;-70
2022/02/22 12:10:43;;;;;;;2.38;2.17;;;;;;;;;;6243474;22;20353;-70
2022/02/22 12:13:13;;;;;;;2.00;1.90;;;;;;;;;;6271164;22;20019;-70
2022/02/22 12:15:40;;;;;;;3.00;2.15;;;;;;;;;;6270297;22;20050;-70
2022/02/22 12:18:16;;;;;;;2.50;2.30;;;;;;;;;;6271353;22;20012;-71
2022/02/22 12:20:42;;;;;;;2.63;2.33;;;;;;;;;;6244957;22;20029;-72
2022/02/22 12:23:27;;;;;;;2.85;2.33;;;;;;;;;;6243933;22;20023;-73
2022/02/22 12:25:56;;;;;;;1.63;1.60;;;;;;;;;;6269768;22;20015;-73
2022/02/22 12:28:23;;;;;;;3.65;2.50;;;;;;;;;;6271111;22;20012;-73
2022/02/22 12:30:50;;;;;;;3.42;2.20;;;;;;;;;;6244857;22;20069;-73
2022/02/22 12:33:17;;;;;;;2.33;2.03;;;;;;;;;;6270908;22;20023;-73
2022/02/22 12:35:43;;;;;;;5.70;2.70;;;;;;;;;;6270908;22;20011;-73
2022/02/22 12:38:19;;;;;;;2.70;2.50;;;;;;;;;;6243378;22;20054;-73
2022/02/22 12:40:46;;;;;;;2.50;2.30;;;;;;;;;;6269461;22;20566;-71
2022/02/22 12:43:12;;;;;;;4.07;2.17;;;;;;;;;;6243845;22;20015;-70
2022/02/22 12:45:46;;;;;;;2.55;2.35;;;;;;;;;;6218638;22;20097;-70
2022/02/22 12:48:13;;;;;;;2.40;2.17;;;;;;;;;;6219180;22;20436;-73
2022/02/22 12:50:40;;;;;;;2.42;2.20;;;;;;;;;;6243708;22;20018;-72
2022/02/22 12:53:06;;;;;;;2.13;1.92;;;;;;;;;;6270141;22;20023;-73
2022/02/22 12:55:32;;;;;;;2.70;2.50;;;;;;;;;;6270670;22;20008;-72
2022/02/22 12:58:07;;;;;;;3.35;2.38;;;;;;;;;;6242052;22;20022;-73
2022/02/22 13:00:33;;;;;;;3.03;2.17;;;;;;;;;;6243841;22;20069;-73
2022/02/22 13:03:06;;;;;;;2.70;2.40;;;;;;;;;;6243441;22;20153;-74
2022/02/22 13:05:45;;;;;;;2.30;2.10;;;;;;;;;;6271249;22;20452;-72
2022/02/22 13:08:11;;;;;;;2.40;2.20;;;;;;;;;;6243104;22;20024;-73
2022/02/22 13:10:41;;;;;;;2.85;2.42;;;;;;;;;;6244585;22;20440;-74
2022/02/22 13:13:07;;;;;;;3.92;2.38;;;;;;;;;;6242824;22;20420;-73
2022/02/22 13:15:34;;;;;;;3.42;2.50;;;;;;;;;;6270939;22;20110;-70
2022/02/22 13:18:24;;;;;;;2.50;2.28;;;;;;;;;;6242984;22;20035;-71
2022/02/22 13:20:51;;;;;;;2.15;2.00;;;;;;;;;;6271092;22;20109;-71
2022/02/22 13:23:28;;;;;;;2.40;2.20;;;;;;;;;;6218403;22;20011;-72
2022/02/22 13:25:57;;;;;;;4.40;2.40;;;;;;;;;;6269822;22;20164;-71
2022/02/22 13:28:35;;;;;;;2.40;2.20;;;;;;;;;;6270805;22;20011;-70
2022/02/22 13:31:15;;;;;;;2.50;2.05;;;;;;;;;;6243362;22;20015;-73
2022/02/22 13:33:41;;;;;;;3.75;2.08;;;;;;;;;;6218072;22;20447;-74
2022/02/22 13:36:11;;;;;;;2.33;2.13;;;;;;;;;;6243470;22;20043;-74
2022/02/22 13:38:37;;;;;;;3.70;2.47;;;;;;;;;;6270188;22;20015;-74
2022/02/22 13:41:08;;;;;;;3.28;2.60;;;;;;;;;;6243566;22;20380;-73
2022/02/22 13:43:34;;;;;;;2.38;2.17;;;;;;;;;;6243730;22;20077;-72
2022/02/22 13:46:01;;;;;;;2.47;2.28;;;;;;;;;;6270145;22;20007;-72
2022/02/22 13:48:28;;;;;;;3.90;2.63;;;;;;;;;;6243361;22;20014;-72
2022/02/22 13:51:06;;;;;;;2.40;2.30;;;;;;;;;;6269917;22;20065;-72
2022/02/22 13:53:33;;;;;;;2.15;2.05;;;;;;;;;;6242927;22;20024;-74
2022/02/22 13:56:02;;;;;;;2.35;2.15;;;;;;;;;;6242638;22;20016;-74
2022/02/22 13:58:29;;;;;;;2.90;2.58;;;;;;;;;;6243485;22;20020;-74
2022/02/22 14:00:56;;;;;;;2.50;2.30;;;;;;;;;;6270204;22;20423;-73
2022/02/22 14:03:22;;;;;;;2.50;2.30;;;;;;;;;;6268917;22;20007;-72
2022/02/22 14:05:49;;;;;;;2.25;2.13;;;;;;;;;;6242340;22;20015;-73
2022/02/22 14:08:15;;;;;;;2.53;2.30;;;;;;;;;;6242406;22;20019;-74
2022/02/22 14:11:04;;;;;;;3.08;2.72;;;;;;;;;;6269886;22;20015;-72
2022/02/22 14:13:50;;;;;;;3.40;2.38;;;;;;;;;;6246146;22;20047;-76
2022/02/22 14:16:19;;;;;;;1.85;1.75;;;;;;;;;;6169091;22;20019;-72
2022/02/22 14:18:53;;;;;;;3.22;2.50;;;;;;;;;;6186279;23;20118;-74
2022/02/22 14:21:20;;;;;;;3.40;2.72;;;;;;;;;;6217492;22;20057;-73
2022/02/22 14:23:50;;;;;;;2.65;2.33;;;;;;;;;;6219555;22;20015;-74
2022/02/22 14:26:19;;;;;;;2.75;2.38;;;;;;;;;;6270983;22;20018;-74
2022/02/22 14:29:03;;;;;;;4.38;2.53;;;;;;;;;;6242784;22;20106;-74
2022/02/22 14:31:55;;;;;;;3.20;2.60;;;;;;;;;;6230087;22;20046;-73
2022/02/22 14:34:47;;;;;;;2.13;2.03;;;;;;;;;;6128136;23;20017;-73
2022/02/22 14:37:15;;;;;;;4.85;2.53;;;;;;;;;;6152069;23;20024;-74
2022/02/22 14:39:41;;;;;;;3.00;2.80;;;;;;;;;;6177805;23;20409;-74
2022/02/22 14:42:07;;;;;;;3.35;2.70;;;;;;;;;;6177015;23;20129;-76
2022/02/22 14:44:33;;;;;;;4.53;2.90;;;;;;;;;;6151444;23;20024;-74
2022/02/22 14:46:59;;;;;;;3.00;2.67;;;;;;;;;;6151168;23;20347;-74
2022/02/22 14:49:25;;;;;;;3.05;2.47;;;;;;;;;;6151312;23;20028;-75
2022/02/22 14:51:51;;;;;;;2.95;2.70;;;;;;;;;;6176232;23;20071;-75
2022/02/22 14:54:17;;;;;;;4.10;3.70;;;;;;;;;;6176696;23;20017;-74
2022/02/22 14:56:43;;;;;;;2.90;2.17;;;;;;;;;;6151401;23;20127;-74
2022/02/22 14:59:11;;;;;;;3.42;2.40;;;;;;;;;;6175266;23;20383;-74
2022/02/22 15:01:37;;;;;;;3.38;2.75;;;;;;;;;;6177259;23;20096;-73
2022/02/22 15:04:03;;;;;;;3.10;2.63;;;;;;;;;;6175609;23;20107;-74
2022/02/22 15:06:30;;;;;;;3.22;2.92;;;;;;;;;;6267079;22;20019;-73
2022/02/22 15:08:55;;;;;;;8.82;2.92;;;;;;;;;;6269397;22;20059;-74
2022/02/22 15:11:23;;;;;;;3.58;2.88;;;;;;;;;;6243154;22;20020;-73
2022/02/22 15:13:49;;;;;;;3.10;2.75;;;;;;;;;;6269633;22;20073;-74
2022/02/22 15:16:15;;;;;;;2.55;2.20;;;;;;;;;;6270125;22;20399;-73
2022/02/22 15:18:41;;;;;;;3.67;3.30;;;;;;;;;;6269051;22;20015;-72
2022/02/22 15:21:07;;;;;;;4.35;2.90;;;;;;;;;;6269795;22;20018;-74
2022/02/22 15:23:33;;;;;;;3.10;2.63;;;;;;;;;;6271248;22;20090;-74
2022/02/22 15:25:59;;;;;;;4.97;2.60;;;;;;;;;;6270959;22;20046;-75
2022/02/22 15:28:25;;;;;;;2.97;2.33;;;;;;;;;;6272277;22;20020;-77
2022/02/22 15:30:51;;;;;;;4.90;3.22;;;;;;;;;;6270805;22;20352;-74
2022/02/22 15:33:17;;;;;;;3.40;3.10;;;;;;;;;;6271543;22;20030;-75
2022/02/22 15:39:30;;;;;;;3.30;2.80;;;;;;;;;;6270975;22;20042;-74
2022/02/22 15:41:56;;;;;;;3.03;2.47;;;;;;;;;;6270747;22;20018;-74
2022/02/22 15:44:22;;;;;;;2.95;2.13;;;;;;;;;;6271193;22;20011;-74
2022/02/22 15:46:47;;;;;;;2.33;2.13;;;;;;;;;;6271284;22;20020;-74
2022/02/22 15:49:13;;;;;;;3.63;2.72;;;;;;;;;;6219041;22;20078;-75
2022/02/22 15:51:40;;;;;;;3.33;2.63;;;;;;;;;;6271688;22;20022;-74
2022/02/22 15:54:06;;;;;;;2.67;2.47;;;;;;;;;;6243819;22;20460;-75
2022/02/22 15:56:32;;;;;;;3.85;3.38;;;;;;;;;;6244708;22;20008;-74
2022/02/22 15:58:58;;;;;;;6.70;3.50;;;;;;;;;;6271505;22;20093;-74
2022/02/22 16:01:24;;;;;;;3.65;2.47;;;;;;;;;;6271591;22;20016;-74
2022/02/22 16:03:50;;;;;;;3.28;2.55;;;;;;;;;;6271253;22;20012;-74
2022/02/22 16:06:16;;;;;;;2.60;2.40;;;;;;;;;;6219324;22;20037;-74
2022/02/22 16:08:42;;;;;;;2.50;2.30;;;;;;;;;;6271279;22;20023;-75
2022/02/22 16:11:08;;;;;;;3.00;2.60;;;;;;;;;;6245053;22;20411;-76
2022/02/22 16:13:34;;;;;;;4.72;3.03;;;;;;;;;;6244089;22;20015;-76
2022/02/22 16:16:01;;;;;;;2.75;2.40;;;;;;;;;;6244097;22;20018;-73
2022/02/22 16:18:27;;;;;;;2.50;2.17;;;;;;;;;;6270886;22;20011;-73
2022/02/22 16:20:56;;;;;;;3.53;2.17;;;;;;;;;;6243467;22;20039;-73
2022/02/22 16:23:22;;;;;;;2.90;2.63;;;;;;;;;;6242290;22;20154;-73
2022/02/22 16:25:48;;;;;;;4.03;2.90;;;;;;;;;;6217007;22;20477;-72
2022/02/22 16:28:14;;;;;;;4.20;3.03;;;;;;;;;;6271666;22;20642;-73
2022/02/22 16:30:41;;;;;;;4.25;2.33;;;;;;;;;;6243879;22;20359;-73
2022/02/22 16:33:08;;;;;;;2.65;2.45;;;;;;;;;;6270680;22;20356;-77
2022/02/22 16:35:34;;;;;;;2.50;2.30;;;;;;;;;;6270482;22;20069;-73
2022/02/22 16:38:01;;;;;;;4.40;2.85;;;;;;;;;;6244106;22;20016;-74
2022/02/22 16:40:31;;;;;;;2.67;2.47;;;;;;;;;;6271417;22;20448;-73
2022/02/22 16:42:57;;;;;;;3.60;2.30;;;;;;;;;;6243142;22;20020;-73
2022/02/22 16:45:23;;;;;;;10.13;2.60;;;;;;;;;;6270757;22;20053;-75
2022/02/22 16:47:49;;;;;;;6.15;3.60;;;;;;;;;;6271857;22;20447;-74
2022/02/22 16:50:15;;;;;;;3.83;3.17;;;;;;;;;;6270089;22;20843;-74
2022/02/22 16:52:40;;;;;;;3.05;2.75;;;;;;;;;;6220219;22;20027;-73
2022/02/22 16:55:07;;;;;;;4.50;3.30;;;;;;;;;;6271722;22;20014;-73
2022/02/22 16:57:33;;;;;;;7.38;3.35;;;;;;;;;;6272200;22;20016;-73
2022/02/22 16:59:59;;;;;;;9.43;5.30;;;;;;;;;;6193598;22;20099;-73
2022/02/22 17:02:25;;;;;;;3.90;3.50;;;;;;;;;;6271400;22;20354;-73
2022/02/22 17:04:51;;;;;;;5.78;4.65;;;;;;;;;;6271110;22;20462;-72
2022/02/22 17:07:17;;;;;;;3.47;3.28;;;;;;;;;;6270844;22;20470;-72
2022/02/22 17:09:44;;;;;;;3.78;3.05;;;;;;;;;;6244208;22;20565;-73
2022/02/22 17:12:10;;;;;;;2.72;2.53;;;;;;;;;;6219652;22;20019;-74
2022/02/22 17:14:37;;;;;;;3.03;2.40;;;;;;;;;;6191464;22;20015;-75
2022/02/22 17:17:03;;;;;;;2.60;2.40;;;;;;;;;;6219667;22;20023;-75
2022/02/22 17:19:29;;;;;;;2.65;2.05;;;;;;;;;;6244399;22;20106;-74
2022/02/22 17:21:55;;;;;;;2.38;2.28;;;;;;;;;;6270816;22;20018;-75
2022/02/22 17:24:21;;;;;;;5.90;2.63;;;;;;;;;;6243892;22;20011;-73
2022/02/22 17:26:47;;;;;;;4.28;2.85;;;;;;;;;;6270879;22;20154;-73
2022/02/22 17:29:13;;;;;;;3.03;2.75;;;;;;;;;;6270702;22;20020;-73
2022/02/22 17:31:40;;;;;;;3.67;3.38;;;;;;;;;;6243038;22;20456;-73
2022/02/22 17:34:07;;;;;;;4.80;3.28;;;;;;;;;;6243670;22;20004;-74
2022/02/22 17:36:33;;;;;;;3.92;3.05;;;;;;;;;;6271245;22;20011;-73
2022/02/22 17:38:59;;;;;;;4.70;3.42;;;;;;;;;;6270530;22;20090;-72
2022/02/22 17:41:24;;;;;;;5.63;3.47;;;;;;;;;;6243897;22;20036;-73
2022/02/22 17:43:50;;;;;;;4.10;2.92;;;;;;;;;;6270450;22;20016;-72
2022/02/22 17:46:16;;;;;;;3.13;2.78;;;;;;;;;;6218103;22;20019;-73
2022/02/22 17:48:42;;;;;;;3.70;3.35;;;;;;;;;;6243575;22;20424;-72
2022/02/22 17:51:08;;;;;;;2.83;2.65;;;;;;;;;;6239381;22;20016;-73
2022/02/22 17:53:38;;;;;;;4.75;3.03;;;;;;;;;;6242422;22;20019;-72
2022/02/22 17:56:08;;;;;;;3.58;3.28;;;;;;;;;;6270072;22;20007;-72
2022/02/22 17:58:35;;;;;;;3.17;2.97;;;;;;;;;;6218891;22;20016;-72
2022/02/22 18:01:07;;;;;;;2.78;2.58;;;;;;;;;;6269708;22;20011;-71
2022/02/22 18:03:33;;;;;;;4.65;2.80;;;;;;;;;;6244888;22;20094;-71
2022/02/22 18:05:59;;;;;;;6.22;3.83;;;;;;;;;;6241471;22;20043;-71
2022/02/22 18:08:25;;;;;;;3.67;3.38;;;;;;;;;;6243245;22;20024;-71
2022/02/22 18:10:52;;;;;;;2.90;2.70;;;;;;;;;;6194060;22;20022;-72
2022/02/22 18:13:18;;;;;;;3.22;2.90;;;;;;;;;;6242958;22;20032;-72
2022/02/22 18:15:44;;;;;;;4.00;3.25;;;;;;;;;;6216774;22;20337;-72
2022/02/22 18:18:14;;;;;;;3.63;3.00;;;;;;;;;;6268677;22;20022;-72
2022/02/22 18:20:41;;;;;;;4.93;3.35;;;;;;;;;;6243634;22;20086;-71
2022/02/22 18:23:07;;;;;;;3.33;3.03;;;;;;;;;;6243809;22;20015;-72
2022/02/22 18:25:33;;;;;;;3.83;2.97;;;;;;;;;;6243413;22;20069;-72
2022/02/22 18:27:59;;;;;;;3.90;3.20;;;;;;;;;;6272567;22;20738;-71
2022/02/22 18:30:25;;;;;;;3.45;3.25;;;;;;;;;;6245361;22;20076;-71
2022/02/22 18:32:51;;;;;;;4.63;3.08;;;;;;;;;;6247070;22;20145;-71
2022/02/22 18:35:17;;;;;;;3.03;2.83;;;;;;;;;;6273348;22;20476;-71
2022/02/22 18:37:43;;;;;;;3.33;3.10;;;;;;;;;;6247106;22;20027;-72
2022/02/22 18:40:12;;;;;;;5.60;3.58;;;;;;;;;;6272919;22;20007;-72
2022/02/22 18:42:41;;;;;;;3.22;2.70;;;;;;;;;;6245858;22;20076;-71
2022/02/22 18:45:07;;;;;;;3.13;2.88;;;;;;;;;;6220365;22;20038;-73
2022/02/22 18:47:34;;;;;;;2.80;2.60;;;;;;;;;;6273746;22;20023;-71
2022/02/22 18:50:00;;;;;;;2.75;2.47;;;;;;;;;;6272955;22;20359;-72
2022/02/22 18:52:26;;;;;;;4.63;3.33;;;;;;;;;;6273331;22;20481;-72
2022/02/22 18:54:53;;;;;;;2.95;2.72;;;;;;;;;;6244902;22;20008;-73
2022/02/22 18:57:19;;;;;;;2.90;2.40;;;;;;;;;;6223503;22;20410;-73
2022/02/22 18:59:47;;;;;;;2.65;2.47;;;;;;;;;;6276592;22;20440;-72
2022/02/22 19:02:12;;;;;;;5.72;2.60;;;;;;;;;;6223093;22;20019;-72
2022/02/22 19:04:38;;;;;;;2.70;2.25;;;;;;;;;;6246891;22;20205;-73
2022/02/22 19:07:05;;;;;;;4.00;2.60;;;;;;;;;;6246276;22;20011;-72
2022/02/22 19:09:31;;;;;;;2.88;2.50;;;;;;;;;;6273389;22;20020;-72
2022/02/22 19:11:57;;;;;;;3.38;2.30;;;;;;;;;;6272412;22;20023;-72
2022/02/22 19:14:24;;;;;;;4.43;2.53;;;;;;;;;;6273577;22;20011;-73
2022/02/22 19:16:50;;;;;;;3.88;2.95;;;;;;;;;;6274309;22;20011;-73
2022/02/22 19:19:16;;;;;;;5.32;3.28;;;;;;;;;;6245475;22;20014;-74
2022/02/22 19:21:42;;;;;;;5.18;3.70;;;;;;;;;;6222200;22;20011;-71
2022/02/22 19:24:09;;;;;;;3.15;2.92;;;;;;;;;;6246465;22;20089;-73
2022/02/22 19:26:36;;;;;;;2.78;2.58;;;;;;;;;;6274600;22;20012;-72
2022/02/22 19:29:02;;;;;;;2.85;2.40;;;;;;;;;;6246848;22;20015;-72
2022/02/22 19:31:28;;;;;;;2.78;2.13;;;;;;;;;;6245759;22;20016;-73
2022/02/22 19:33:54;;;;;;;2.45;2.25;;;;;;;;;;6246815;22;20444;-73
2022/02/22 19:36:20;;;;;;;3.05;2.80;;;;;;;;;;6245368;22;20077;-73
2022/02/22 19:38:47;;;;;;;2.20;2.00;;;;;;;;;;6221486;22;20012;-73
2022/02/22 19:41:13;;;;;;;3.03;2.33;;;;;;;;;;6273442;22;20085;-73
2022/02/22 19:43:39;;;;;;;3.08;2.50;;;;;;;;;;6245903;22;20026;-74
2022/02/22 19:46:05;;;;;;;2.70;2.50;;;;;;;;;;6247453;22;20034;-73
2022/02/22 19:48:31;;;;;;;2.85;2.35;;;;;;;;;;6243022;22;20016;-72
2022/02/22 19:50:58;;;;;;;2.65;2.10;;;;;;;;;;6273825;22;20022;-72
2022/02/22 19:53:25;;;;;;;2.13;2.03;;;;;;;;;;6218757;22;20051;-72
2022/02/22 19:55:52;;;;;;;2.30;2.10;;;;;;;;;;6272340;22;20033;-72
2022/02/22 19:58:18;;;;;;;4.90;2.58;;;;;;;;;;6273460;22;20068;-72
2022/02/22 20:00:44;;;;;;;2.08;1.98;;;;;;;;;;6221199;22;20015;-72
2022/02/22 20:03:10;;;;;;;4.25;2.65;;;;;;;;;;6273559;22;20098;-72
2022/02/22 20:05:36;;;;;;;2.55;2.17;;;;;;;;;;6273939;22;20541;-71
2022/02/22 20:08:02;;;;;;;2.53;2.33;;;;;;;;;;6245139;22;20039;-72
2022/02/22 20:10:28;;;;;;;2.42;2.22;;;;;;;;;;6273180;22;20078;-71
2022/02/22 20:12:54;;;;;;;2.40;2.22;;;;;;;;;;6220027;22;20797;-72
2022/02/22 20:15:20;;;;;;;2.45;2.28;;;;;;;;;;6245576;22;20014;-72
2022/02/22 20:17:46;;;;;;;2.75;2.53;;;;;;;;;;6272465;22;20035;-72
2022/02/22 20:20:12;;;;;;;2.20;2.10;;;;;;;;;;6272103;22;20015;-70
2022/02/22 20:22:39;;;;;;;2.28;2.17;;;;;;;;;;6245851;22;20012;-70
2022/02/22 20:25:05;;;;;;;2.20;2.10;;;;;;;;;;6220306;22;20081;-70
2022/02/22 20:27:31;;;;;;;2.58;2.38;;;;;;;;;;6220194;22;20106;-70
2022/02/22 20:29:57;;;;;;;2.85;2.60;;;;;;;;;;6245252;22;20050;-70
2022/02/22 20:32:23;;;;;;;2.30;2.10;;;;;;;;;;6272868;22;20023;-69
2022/02/22 20:34:49;;;;;;;2.65;2.42;;;;;;;;;;6272372;22;20015;-70
2022/02/22 20:37:15;;;;;;;3.97;2.42;;;;;;;;;;6245174;22;20452;-70
2022/02/22 20:39:42;;;;;;;2.50;2.30;;;;;;;;;;6219608;22;20019;-69
2022/02/22 20:42:08;;;;;;;2.67;2.47;;;;;;;;;;6193903;22;20015;-70
2022/02/22 20:44:35;;;;;;;2.20;2.10;;;;;;;;;;6271264;22;20007;-70
2022/02/22 20:47:01;;;;;;;1.88;1.77;;;;;;;;;;6243931;22;20046;-71
2022/02/22 20:49:27;;;;;;;2.47;2.28;;;;;;;;;;6243257;22;20085;-72
2022/02/22 20:51:53;;;;;;;3.30;2.75;;;;;;;;;;6270954;22;20397;-70
2022/02/22 20:54:19;;;;;;;2.58;2.38;;;;;;;;;;6270481;22;20402;-71
2022/02/22 20:56:45;;;;;;;3.65;2.72;;;;;;;;;;6244346;22;20058;-70
2022/02/22 20:59:11;;;;;;;3.45;1.92;;;;;;;;;;6244156;22;20015;-72